Time;durP1;ratioP1;P1;durP2;ratioP2;P2;SDS_P1;SDS_P2;PMS_P1;PMS_P2;Temp;Humidity;BMP_temperature;BMP_pressure;BME280_temperature;BME280_humidity;BME280_pressure;Samples;Min_cycle;Max_cycle;Signal;HPM_P1;HPM_P2
2022/10/04 00:02:20;;;;;;;;;;;15.50;99.90;;;;;;5073740;28;19916;-66
2022/10/04 00:04:50;;;;;;;;;;;15.50;99.90;;;;;;5088675;28;19920;-65
2022/10/04 00:07:19;;;;;;;;;;;15.50;99.90;;;;;;5089295;28;20011;-67
2022/10/04 00:09:47;;;;;;;;;;;15.50;99.90;;;;;;5089998;28;19916;-66
2022/10/04 00:12:23;;;;;;;;;;;15.60;99.90;;;;;;5087230;28;20357;-66
2022/10/04 00:14:50;;;;;;;;;;;15.50;99.90;;;;;;5094580;28;20906;-66
2022/10/04 00:17:21;;;;;;;;;;;15.60;99.90;;;;;;5090354;28;19919;-66
2022/10/04 00:19:48;;;;;;;;;;;15.70;99.90;;;;;;5079410;28;20431;-65
2022/10/04 00:22:16;;;;;;;;;;;15.80;99.90;;;;;;5077622;28;19912;-66
2022/10/04 00:25:00;;;;;;;;;;;15.80;99.90;;;;;;5088519;28;19920;-66
2022/10/04 00:27:26;;;;;;;;;;;15.90;99.90;;;;;;5084751;28;20361;-64
2022/10/04 00:30:00;;;;;;;;;;;15.90;99.90;;;;;;5088974;28;19928;-65
2022/10/04 00:32:27;;;;;;;;;;;15.90;99.90;;;;;;5090167;28;19912;-66
2022/10/04 00:34:53;;;;;;;;;;;16.00;99.90;;;;;;5087232;28;19912;-66
2022/10/04 00:37:20;;;;;;;;;;;16.00;99.90;;;;;;5089989;28;20387;-66
2022/10/04 00:39:46;;;;;;;;;;;16.00;99.90;;;;;;5087977;28;20392;-66
2022/10/04 00:42:32;;;;;;;;;;;16.00;99.90;;;;;;5087718;28;19920;-66
2022/10/04 00:45:00;;;;;;;;;;;16.00;99.90;;;;;;5087040;28;20006;-65
2022/10/04 00:47:49;;;;;;;;;;;16.00;99.90;;;;;;5088729;28;19912;-66
2022/10/04 00:50:25;;;;;;;;;;;16.10;99.90;;;;;;5083242;28;19924;-66
2022/10/04 00:52:53;;;;;;;;;;;16.10;99.90;;;;;;5081970;28;19943;-66
2022/10/04 00:55:23;;;;;;;;;;;16.10;99.90;;;;;;5082510;28;19912;-66
2022/10/04 00:57:51;;;;;;;;;;;16.00;99.90;;;;;;5072909;28;19999;-65
2022/10/04 01:00:18;;;;;;;;;;;16.00;99.90;;;;;;5080391;28;21104;-65
2022/10/04 01:02:53;;;;;;;;;;;16.00;99.90;;;;;;5076004;28;20365;-66
2022/10/04 01:05:22;;;;;;;;;;;16.10;99.90;;;;;;5071135;28;19951;-65
2022/10/04 01:07:49;;;;;;;;;;;16.10;99.90;;;;;;5078851;28;19919;-65
2022/10/04 01:10:32;;;;;;;;;;;16.00;99.90;;;;;;5073763;28;20337;-66
2022/10/04 01:13:27;;;;;;;;;;;16.00;99.90;;;;;;5074164;28;19919;-65
2022/10/04 01:15:58;;;;;;;;;;;16.00;99.90;;;;;;5075051;28;20384;-65
2022/10/04 01:18:24;;;;;;;;;;;16.00;99.90;;;;;;5080652;28;20007;-65
2022/10/04 01:20:49;;;;;;;;;;;16.10;99.90;;;;;;5075348;28;20003;-66
2022/10/04 01:23:34;;;;;;;;;;;16.00;99.90;;;;;;5077948;28;20361;-66
2022/10/04 01:26:00;;;;;;;;;;;16.00;99.90;;;;;;5077542;28;20395;-66
2022/10/04 01:28:25;;;;;;;;;;;16.00;99.90;;;;;;5076314;28;19912;-66
2022/10/04 01:30:51;;;;;;;;;;;16.00;99.90;;;;;;5075901;28;19939;-64
2022/10/04 01:33:17;;;;;;;;;;;16.00;99.90;;;;;;5071600;28;20414;-67
2022/10/04 01:35:43;;;;;;;;;;;16.10;99.90;;;;;;5073390;28;19944;-66
2022/10/04 01:38:10;;;;;;;;;;;16.00;99.90;;;;;;5083628;28;20386;-67
2022/10/04 01:40:37;;;;;;;;;;;16.00;99.90;;;;;;5077318;28;19927;-65
2022/10/04 01:43:08;;;;;;;;;;;16.00;99.90;;;;;;5074188;28;20449;-66
2022/10/04 01:45:39;;;;;;;;;;;16.00;99.90;;;;;;5078400;28;20007;-66
2022/10/04 01:48:08;;;;;;;;;;;16.10;99.90;;;;;;5080052;28;20010;-65
2022/10/04 01:50:37;;;;;;;;;;;16.00;99.90;;;;;;5080105;28;19920;-65
2022/10/04 01:53:20;;;;;;;;;;;16.00;99.90;;;;;;5080313;28;20010;-66
2022/10/04 01:55:49;;;;;;;;;;;16.00;99.90;;;;;;5082604;28;19919;-66
2022/10/04 01:58:24;;;;;;;;;;;16.10;99.90;;;;;;5085857;28;19912;-66
2022/10/04 02:00:55;;;;;;;;;;;16.10;99.90;;;;;;5088645;28;19920;-65
2022/10/04 02:03:25;;;;;;;;;;;16.10;99.90;;;;;;5087788;28;20493;-64
2022/10/04 02:05:52;;;;;;;;;;;16.20;99.90;;;;;;5092212;28;20039;-65
2022/10/04 02:08:22;;;;;;;;;;;16.20;99.90;;;;;;5092807;28;20966;-65
2022/10/04 02:10:49;;;;;;;;;;;16.20;99.90;;;;;;5092519;28;19920;-65
2022/10/04 02:13:17;;;;;;;;;;;16.20;99.90;;;;;;5091858;28;20357;-65
2022/10/04 02:15:44;;;;;;;;;;;16.20;99.90;;;;;;5087095;28;19912;-66
2022/10/04 02:18:30;;;;;;;;;;;16.10;99.90;;;;;;5085390;28;19927;-68
2022/10/04 02:20:56;;;;;;;;;;;16.10;99.90;;;;;;5083854;28;19912;-66
2022/10/04 02:23:23;;;;;;;;;;;16.00;99.90;;;;;;5084024;28;20401;-65
2022/10/04 02:25:48;;;;;;;;;;;16.00;99.90;;;;;;5091504;28;19948;-65
2022/10/04 02:28:15;;;;;;;;;;;16.00;99.90;;;;;;5090823;28;19946;-66
2022/10/04 02:30:42;;;;;;;;;;;16.00;99.90;;;;;;5094813;28;19912;-66
2022/10/04 02:33:09;;;;;;;;;;;16.00;99.90;;;;;;5086486;28;19916;-65
2022/10/04 02:35:45;;;;;;;;;;;16.10;99.90;;;;;;5089380;28;20357;-66
2022/10/04 02:38:24;;;;;;;;;;;16.10;99.90;;;;;;5084450;28;19920;-66
2022/10/04 02:41:00;;;;;;;;;;;16.10;99.90;;;;;;5082458;28;19912;-67
2022/10/04 02:43:34;;;;;;;;;;;16.10;99.90;;;;;;5088419;28;19956;-66
2022/10/04 02:46:10;;;;;;;;;;;16.00;99.90;;;;;;5090245;28;19918;-66
2022/10/04 02:48:58;;;;;;;;;;;16.00;99.90;;;;;;5088406;28;20350;-66
2022/10/04 02:51:35;;;;;;;;;;;15.90;99.90;;;;;;5088795;28;20370;-65
2022/10/04 02:54:01;;;;;;;;;;;15.90;99.90;;;;;;5084214;28;19916;-67
2022/10/04 02:56:27;;;;;;;;;;;15.90;99.90;;;;;;5085060;28;20531;-67
2022/10/04 02:58:53;;;;;;;;;;;15.90;99.90;;;;;;5084795;28;19918;-66
2022/10/04 03:01:27;;;;;;;;;;;15.90;99.90;;;;;;5083938;28;19912;-66
2022/10/04 03:03:53;;;;;;;;;;;15.90;99.90;;;;;;5080283;28;20070;-66
2022/10/04 03:06:23;;;;;;;;;;;15.90;99.90;;;;;;5086387;28;20394;-66
2022/10/04 03:08:57;;;;;;;;;;;15.80;99.90;;;;;;5086364;28;20309;-66
2022/10/04 03:11:26;;;;;;;;;;;15.70;99.90;;;;;;5081623;28;19924;-66
2022/10/04 03:13:54;;;;;;;;;;;15.70;99.90;;;;;;5085727;28;19916;-67
2022/10/04 03:16:20;;;;;;;;;;;15.60;99.90;;;;;;5084815;28;20034;-66
2022/10/04 03:18:47;;;;;;;;;;;15.60;99.90;;;;;;5086188;28;20262;-65
2022/10/04 03:21:14;;;;;;;;;;;15.60;99.90;;;;;;5077879;28;20353;-66
2022/10/04 03:23:40;;;;;;;;;;;15.60;99.90;;;;;;5070941;28;19927;-67
2022/10/04 03:26:18;;;;;;;;;;;15.60;99.90;;;;;;5079347;28;19924;-66
2022/10/04 03:28:44;;;;;;;;;;;15.70;99.90;;;;;;5085534;28;19913;-66
2022/10/04 03:31:12;;;;;;;;;;;15.60;99.90;;;;;;5078434;28;19999;-66
2022/10/04 03:33:38;;;;;;;;;;;15.60;99.90;;;;;;5084192;28;19913;-65
2022/10/04 03:36:04;;;;;;;;;;;15.60;99.90;;;;;;5075251;28;20566;-66
2022/10/04 03:38:33;;;;;;;;;;;15.50;99.90;;;;;;5065828;28;19920;-66
2022/10/04 03:40:59;;;;;;;;;;;15.50;99.90;;;;;;5087293;28;19912;-66
2022/10/04 03:43:27;;;;;;;;;;;15.50;99.90;;;;;;5082053;28;19927;-66
2022/10/04 03:45:52;;;;;;;;;;;15.60;99.90;;;;;;5083932;28;19913;-66
2022/10/04 03:48:38;;;;;;;;;;;15.60;99.90;;;;;;5080656;28;20814;-67
2022/10/04 03:51:06;;;;;;;;;;;15.70;99.90;;;;;;5073107;28;20271;-66
2022/10/04 03:53:35;;;;;;;;;;;15.70;99.90;;;;;;5089184;28;20306;-66
2022/10/04 03:56:01;;;;;;;;;;;15.70;99.90;;;;;;5085931;28;19912;-66
2022/10/04 03:58:29;;;;;;;;;;;15.60;99.90;;;;;;5075665;28;19913;-67
2022/10/04 04:00:57;;;;;;;;;;;15.70;99.90;;;;;;5075261;28;19912;-64
2022/10/04 04:03:25;;;;;;;;;;;15.60;99.90;;;;;;5077676;28;19931;-67
2022/10/04 04:05:53;;;;;;;;;;;15.60;99.90;;;;;;5079816;28;20266;-66
2022/10/04 04:08:25;;;;;;;;;;;15.50;99.90;;;;;;5087816;28;20014;-66
2022/10/04 04:10:52;;;;;;;;;;;15.60;99.90;;;;;;5083295;28;20015;-66
2022/10/04 04:13:20;;;;;;;;;;;15.50;99.90;;;;;;5086489;28;19955;-66
2022/10/04 04:15:47;;;;;;;;;;;15.40;99.90;;;;;;5091908;28;19912;-66
2022/10/04 04:18:22;;;;;;;;;;;15.40;99.90;;;;;;5087580;28;19924;-66
2022/10/04 04:20:48;;;;;;;;;;;15.40;99.90;;;;;;5081950;28;19920;-66
2022/10/04 04:23:14;;;;;;;;;;;15.40;99.90;;;;;;5071475;28;19920;-66
2022/10/04 04:25:41;;;;;;;;;;;15.40;99.90;;;;;;5083678;28;19919;-66
2022/10/04 04:28:16;;;;;;;;;;;15.40;99.90;;;;;;5079677;28;19919;-66
2022/10/04 04:30:46;;;;;;;;;;;15.40;99.90;;;;;;5088158;28;20013;-66
2022/10/04 04:33:18;;;;;;;;;;;15.50;99.90;;;;;;5086360;28;19920;-66
2022/10/04 04:35:43;;;;;;;;;;;15.50;99.90;;;;;;5090071;28;19938;-66
2022/10/04 04:38:13;;;;;;;;;;;15.40;99.90;;;;;;5088039;28;19919;-66
2022/10/04 04:40:39;;;;;;;;;;;15.40;99.90;;;;;;5091151;28;19912;-67
2022/10/04 04:43:05;;;;;;;;;;;15.40;99.90;;;;;;5087883;28;19973;-66
2022/10/04 04:45:31;;;;;;;;;;;15.40;99.90;;;;;;5089149;28;19912;-66
2022/10/04 04:47:58;;;;;;;;;;;15.40;99.90;;;;;;5067457;28;20019;-65
2022/10/04 04:50:26;;;;;;;;;;;15.30;99.90;;;;;;5083107;28;19946;-66
2022/10/04 04:52:59;;;;;;;;;;;15.30;99.90;;;;;;5082463;28;19955;-68
2022/10/04 04:55:29;;;;;;;;;;;15.30;99.90;;;;;;5089015;28;20239;-66
2022/10/04 04:57:57;;;;;;;;;;;15.20;99.90;;;;;;5088940;28;20042;-65
2022/10/04 05:00:28;;;;;;;;;;;15.20;99.90;;;;;;5088450;28;19916;-66
2022/10/04 05:02:58;;;;;;;;;;;15.10;99.90;;;;;;5085804;28;20022;-67
2022/10/04 05:05:31;;;;;;;;;;;15.10;99.90;;;;;;5084836;28;19913;-66
2022/10/04 05:08:15;;;;;;;;;;;15.10;99.90;;;;;;5087838;28;20574;-66
2022/10/04 05:10:44;;;;;;;;;;;15.20;99.90;;;;;;5090354;28;19913;-65
2022/10/04 05:13:10;;;;;;;;;;;15.20;99.90;;;;;;5087886;28;19919;-66
2022/10/04 05:15:36;;;;;;;;;;;15.30;99.90;;;;;;5090644;28;19912;-67
2022/10/04 05:18:14;;;;;;;;;;;15.40;99.90;;;;;;5087927;28;20377;-66
2022/10/04 05:20:42;;;;;;;;;;;15.40;99.90;;;;;;5085523;28;19912;-67
2022/10/04 05:23:10;;;;;;;;;;;15.40;99.90;;;;;;5089565;28;19920;-66
2022/10/04 05:25:36;;;;;;;;;;;15.40;99.90;;;;;;5088326;28;19919;-67
2022/10/04 05:28:02;;;;;;;;;;;15.50;99.90;;;;;;5089260;28;19920;-67
2022/10/04 05:30:43;;;;;;;;;;;15.60;99.90;;;;;;5085963;28;19966;-67
2022/10/04 05:33:10;;;;;;;;;;;15.50;99.90;;;;;;5087498;28;19919;-67
2022/10/04 05:35:54;;;;;;;;;;;15.50;99.90;;;;;;5083082;28;19916;-67
2022/10/04 05:38:22;;;;;;;;;;;15.40;99.90;;;;;;5080823;28;19912;-67
2022/10/04 05:41:00;;;;;;;;;;;15.30;99.90;;;;;;5081018;28;20062;-67
2022/10/04 05:43:25;;;;;;;;;;;15.30;99.90;;;;;;5077221;28;19920;-67
2022/10/04 05:46:11;;;;;;;;;;;15.20;99.90;;;;;;5091340;28;20323;-67
2022/10/04 05:48:38;;;;;;;;;;;15.20;99.90;;;;;;5082422;28;19966;-67
2022/10/04 05:51:11;;;;;;;;;;;15.20;99.90;;;;;;5073238;28;19916;-66
2022/10/04 05:53:37;;;;;;;;;;;15.20;99.90;;;;;;5080811;28;19919;-67
2022/10/04 05:56:21;;;;;;;;;;;15.20;99.90;;;;;;5082048;28;19912;-66
2022/10/04 05:59:00;;;;;;;;;;;15.10;99.90;;;;;;5082633;28;19912;-67
2022/10/04 06:01:30;;;;;;;;;;;15.10;99.90;;;;;;5080477;28;19920;-67
2022/10/04 06:03:59;;;;;;;;;;;15.10;99.90;;;;;;5079989;28;19927;-67
2022/10/04 06:06:51;;;;;;;;;;;15.00;99.90;;;;;;5084545;28;20435;-66
2022/10/04 06:09:19;;;;;;;;;;;15.00;99.90;;;;;;5081919;28;20371;-68
2022/10/04 06:12:00;;;;;;;;;;;14.90;99.90;;;;;;5083272;28;19998;-67
2022/10/04 06:14:29;;;;;;;;;;;14.90;99.90;;;;;;5084178;28;19920;-68
2022/10/04 06:17:04;;;;;;;;;;;14.80;99.90;;;;;;5084808;28;20255;-67
2022/10/04 06:19:29;;;;;;;;;;;14.70;99.90;;;;;;5087926;28;20010;-66
2022/10/04 06:22:15;;;;;;;;;;;14.70;99.90;;;;;;5082658;28;20011;-66
2022/10/04 06:24:41;;;;;;;;;;;14.70;99.90;;;;;;5080425;28;20277;-66
2022/10/04 06:27:16;;;;;;;;;;;14.60;99.90;;;;;;5079620;28;19916;-67
2022/10/04 06:29:44;;;;;;;;;;;14.60;99.90;;;;;;5076364;28;20380;-67
2022/10/04 06:32:09;;;;;;;;;;;14.70;99.90;;;;;;5081707;28;20357;-67
2022/10/04 06:34:47;;;;;;;;;;;14.80;99.90;;;;;;5077721;28;19913;-67
2022/10/04 06:37:41;;;;;;;;;;;14.70;99.90;;;;;;5081682;28;19920;-66
2022/10/04 06:40:15;;;;;;;;;;;14.80;99.90;;;;;;5078800;28;19943;-67
2022/10/04 06:43:01;;;;;;;;;;;14.80;99.90;;;;;;5075818;28;20007;-67
2022/10/04 06:45:46;;;;;;;;;;;14.90;99.90;;;;;;5078854;28;19920;-67
2022/10/04 06:48:12;;;;;;;;;;;15.00;99.90;;;;;;5076320;28;19930;-67
2022/10/04 06:50:40;;;;;;;;;;;15.00;99.90;;;;;;5076177;28;20354;-67
2022/10/04 06:53:06;;;;;;;;;;;15.10;99.90;;;;;;5076809;28;20412;-66
2022/10/04 06:55:37;;;;;;;;;;;15.00;99.90;;;;;;5077980;28;19917;-69
2022/10/04 06:58:09;;;;;;;;;;;15.10;99.90;;;;;;5079176;28;19919;-68
2022/10/04 07:00:48;;;;;;;;;;;15.20;99.90;;;;;;5070160;28;19919;-68
2022/10/04 07:03:15;;;;;;;;;;;15.20;99.90;;;;;;5081258;28;19924;-67
2022/10/04 07:05:44;;;;;;;;;;;15.30;99.90;;;;;;5077082;28;19955;-69
2022/10/04 07:08:29;;;;;;;;;;;15.30;99.90;;;;;;5080290;28;19996;-67
2022/10/04 07:10:55;;;;;;;;;;;15.40;99.90;;;;;;5088027;28;19938;-66
2022/10/04 07:13:27;;;;;;;;;;;15.40;99.90;;;;;;5088541;28;19919;-67
2022/10/04 07:15:52;;;;;;;;;;;15.50;99.90;;;;;;5087286;28;19920;-67
2022/10/04 07:18:30;;;;;;;;;;;15.50;99.90;;;;;;5081236;28;19912;-66
2022/10/04 07:21:05;;;;;;;;;;;15.50;99.90;;;;;;5073968;28;19954;-67
2022/10/04 07:23:32;;;;;;;;;;;15.60;99.90;;;;;;5081439;28;19924;-67
2022/10/04 07:26:02;;;;;;;;;;;15.60;99.90;;;;;;5071813;28;19917;-67
2022/10/04 07:31:33;;;;;;;;;;;15.70;99.90;;;;;;5077162;28;19939;-68
2022/10/04 07:34:01;;;;;;;;;;;15.80;99.90;;;;;;5075446;28;19975;-69
2022/10/04 07:36:39;;;;;;;;;;;15.80;99.90;;;;;;5072621;28;19920;-67
2022/10/04 07:39:15;;;;;;;;;;;15.90;99.90;;;;;;5072345;28;19912;-68
2022/10/04 07:41:46;;;;;;;;;;;16.00;99.90;;;;;;5072647;28;19916;-68
2022/10/04 07:44:23;;;;;;;;;;;16.10;99.90;;;;;;5084660;28;20425;-68
2022/10/04 07:46:54;;;;;;;;;;;16.10;99.90;;;;;;5081871;28;20001;-67
2022/10/04 07:49:21;;;;;;;;;;;16.20;99.90;;;;;;5077881;28;19916;-69
2022/10/04 07:52:05;;;;;;;;;;;16.10;99.90;;;;;;5074626;28;20007;-68
2022/10/04 07:54:55;;;;;;;;;;;16.00;99.90;;;;;;5079780;28;19916;-67
2022/10/04 07:57:29;;;;;;;;;;;16.10;99.90;;;;;;5070675;28;19920;-67
2022/10/04 07:59:55;;;;;;;;;;;16.20;99.90;;;;;;5076824;28;19919;-67
2022/10/04 08:02:37;;;;;;;;;;;16.20;99.90;;;;;;5076526;28;19999;-67
2022/10/04 08:05:06;;;;;;;;;;;16.20;99.90;;;;;;5082015;28;19920;-67
2022/10/04 08:07:52;;;;;;;;;;;16.30;99.90;;;;;;5089933;28;19912;-67
2022/10/04 08:10:30;;;;;;;;;;;16.30;99.90;;;;;;5077845;28;20502;-67
2022/10/04 08:13:18;;;;;;;;;;;16.40;99.90;;;;;;5077294;28;19912;-65
2022/10/04 08:15:45;;;;;;;;;;;16.50;99.90;;;;;;5077829;28;20353;-66
2022/10/04 08:18:16;;;;;;;;;;;16.50;99.90;;;;;;5089691;28;19916;-67
2022/10/04 08:21:08;;;;;;;;;;;16.50;99.90;;;;;;5076225;28;19999;-67
2022/10/04 08:23:43;;;;;;;;;;;16.70;99.90;;;;;;5071881;28;19920;-67
2022/10/04 08:26:27;;;;;;;;;;;16.70;99.90;;;;;;5088378;28;19912;-68
2022/10/04 08:32:25;;;;;;;;;;;16.80;99.90;;;;;;5094453;28;20347;-68
2022/10/04 08:35:03;;;;;;;;;;;16.70;99.90;;;;;;5084907;28;19994;-68
2022/10/04 08:37:40;;;;;;;;;;;16.50;99.90;;;;;;5081719;28;20014;-66
2022/10/04 08:40:15;;;;;;;;;;;16.40;99.90;;;;;;5089359;28;19912;-67
2022/10/04 08:42:53;;;;;;;;;;;16.50;99.90;;;;;;5086359;28;19944;-67
2022/10/04 08:45:27;;;;;;;;;;;16.50;99.90;;;;;;5089622;28;19993;-67
2022/10/04 08:47:53;;;;;;;;;;;16.40;99.90;;;;;;5085152;28;20415;-66
2022/10/04 08:50:41;;;;;;;;;;;16.50;99.90;;;;;;5083176;28;20021;-68
2022/10/04 08:53:07;;;;;;;;;;;16.50;99.90;;;;;;5078057;28;19970;-68
2022/10/04 08:55:40;;;;;;;;;;;16.50;99.90;;;;;;5082482;28;19969;-67
2022/10/04 08:58:05;;;;;;;;;;;16.70;99.90;;;;;;5079557;28;19916;-67
2022/10/04 09:00:46;;;;;;;;;;;16.70;99.90;;;;;;5078101;28;20542;-67
2022/10/04 09:03:33;;;;;;;;;;;16.80;99.90;;;;;;5079017;28;19928;-68
2022/10/04 09:06:04;;;;;;;;;;;17.00;99.90;;;;;;5076269;28;19913;-68
2022/10/04 09:08:48;;;;;;;;;;;17.10;99.90;;;;;;5075518;28;19912;-69
2022/10/04 09:11:40;;;;;;;;;;;17.00;99.90;;;;;;5073982;28;19916;-67
2022/10/04 09:14:05;;;;;;;;;;;17.00;99.90;;;;;;5076574;28;20318;-67
2022/10/04 09:16:43;;;;;;;;;;;16.80;99.90;;;;;;5079383;28;19955;-68
2022/10/04 09:19:21;;;;;;;;;;;16.70;99.90;;;;;;5082273;28;19919;-68
2022/10/04 09:21:55;;;;;;;;;;;16.40;99.90;;;;;;5087632;28;20435;-68
2022/10/04 09:24:27;;;;;;;;;;;16.30;99.90;;;;;;5087959;28;19940;-67
2022/10/04 09:27:10;;;;;;;;;;;16.30;99.90;;;;;;5077582;28;19920;-68
2022/10/04 09:30:05;;;;;;;;;;;16.40;99.90;;;;;;5085926;28;19912;-68
2022/10/04 09:32:41;;;;;;;;;;;16.60;99.90;;;;;;5084503;28;20388;-69
2022/10/04 09:35:26;;;;;;;;;;;16.80;99.90;;;;;;5076194;28;19912;-67
2022/10/04 09:38:18;;;;;;;;;;;17.00;99.90;;;;;;5075331;28;20386;-68
2022/10/04 09:41:04;;;;;;;;;;;17.30;99.90;;;;;;5072625;28;19920;-66
2022/10/04 09:43:42;;;;;;;;;;;17.50;99.90;;;;;;5083994;28;19979;-67
2022/10/04 09:46:15;;;;;;;;;;;17.70;99.90;;;;;;5076846;28;20393;-68
2022/10/04 09:48:43;;;;;;;;;;;17.80;99.90;;;;;;5087599;28;19919;-67
2022/10/04 09:51:22;;;;;;;;;;;17.70;99.90;;;;;;5075452;28;19916;-67
2022/10/04 09:53:53;;;;;;;;;;;17.80;99.90;;;;;;5077659;28;19920;-68
2022/10/04 09:56:42;;;;;;;;;;;17.80;99.90;;;;;;5081715;28;19913;-68
2022/10/04 09:59:25;;;;;;;;;;;17.80;99.90;;;;;;5086312;28;20002;-67
2022/10/04 10:02:09;;;;;;;;;;;17.70;99.90;;;;;;5072182;28;19934;-68
2022/10/04 10:04:40;;;;;;;;;;;17.80;99.90;;;;;;5070299;28;20258;-67
2022/10/04 10:07:21;;;;;;;;;;;17.90;99.90;;;;;;5079764;28;19916;-68
2022/10/04 10:16:04;;;;;;;;;;;17.90;99.90;;;;;;5086860;28;20313;-68
2022/10/04 10:18:40;;;;;;;;;;;17.90;99.90;;;;;;5089825;28;19908;-69
2022/10/04 10:21:11;;;;;;;;;;;18.10;99.90;;;;;;5083139;28;20333;-69
2022/10/04 10:23:56;;;;;;;;;;;18.30;99.90;;;;;;5081507;28;19947;-69
2022/10/04 10:26:24;;;;;;;;;;;18.50;99.90;;;;;;5081471;28;19959;-67
2022/10/04 10:29:08;;;;;;;;;;;18.70;99.90;;;;;;5073395;28;20320;-66
2022/10/04 10:31:33;;;;;;;;;;;19.00;99.90;;;;;;5074450;28;19980;-68
2022/10/04 10:34:17;;;;;;;;;;;19.00;99.90;;;;;;5081254;28;20006;-69
2022/10/04 10:36:49;;;;;;;;;;;19.30;99.90;;;;;;5075825;28;20007;-69
2022/10/04 10:39:41;;;;;;;;;;;19.50;99.90;;;;;;5076076;28;20925;-68
2022/10/04 10:42:26;;;;;;;;;;;19.40;99.90;;;;;;5085378;28;19912;-67
2022/10/04 10:45:10;;;;;;;;;;;19.50;99.90;;;;;;5084854;28;20069;-68
2022/10/04 10:47:41;;;;;;;;;;;19.50;99.90;;;;;;5074933;28;19919;-67
2022/10/04 10:50:19;;;;;;;;;;;19.50;99.90;;;;;;5072302;28;19951;-68
2022/10/04 10:52:44;;;;;;;;;;;19.60;99.90;;;;;;5080651;28;19938;-68
2022/10/04 10:55:10;;;;;;;;;;;19.60;99.90;;;;;;5081046;28;19916;-68
2022/10/04 10:57:51;;;;;;;;;;;19.50;99.90;;;;;;5073654;28;19909;-68
2022/10/04 11:00:16;;;;;;;;;;;19.20;99.90;;;;;;5081662;28;20369;-68
2022/10/04 11:02:55;;;;;;;;;;;19.10;99.90;;;;;;5087321;28;19959;-67
2022/10/04 11:05:30;;;;;;;;;;;19.00;99.90;;;;;;5082200;28;20387;-68
2022/10/04 11:08:10;;;;;;;;;;;19.00;99.90;;;;;;5087956;28;19913;-67
2022/10/04 11:10:50;;;;;;;;;;;18.90;99.90;;;;;;5075807;28;19920;-69
2022/10/04 11:13:20;;;;;;;;;;;19.00;99.90;;;;;;5079974;28;19916;-69
2022/10/04 11:16:03;;;;;;;;;;;19.20;99.90;;;;;;5073518;28;20036;-68
2022/10/04 11:18:31;;;;;;;;;;;19.10;99.90;;;;;;5088022;28;20139;-67
2022/10/04 11:21:09;;;;;;;;;;;19.00;99.90;;;;;;5081556;28;19923;-68
2022/10/04 11:23:36;;;;;;;;;;;18.90;99.90;;;;;;5074069;28;19920;-68
2022/10/04 11:26:30;;;;;;;;;;;18.80;99.90;;;;;;5077309;28;20293;-67
2022/10/04 11:28:57;;;;;;;;;;;19.00;99.90;;;;;;5083323;28;20018;-67
2022/10/04 11:31:59;;;;;;;;;;;18.90;99.90;;;;;;5083920;28;19916;-67
2022/10/04 11:34:36;;;;;;;;;;;18.70;99.90;;;;;;5082800;28;19916;-68
2022/10/04 11:37:21;;;;;;;;;;;18.90;99.90;;;;;;5078056;28;20331;-68
2022/10/04 11:40:00;;;;;;;;;;;19.10;99.90;;;;;;5070476;28;19916;-66
2022/10/04 11:42:38;;;;;;;;;;;19.20;99.90;;;;;;5076152;28;19990;-69
2022/10/04 11:45:04;;;;;;;;;;;19.20;99.90;;;;;;5082837;28;19916;-68
2022/10/04 11:47:39;;;;;;;;;;;19.10;99.90;;;;;;5072778;28;19919;-67
2022/10/04 11:50:11;;;;;;;;;;;19.20;99.90;;;;;;5079056;28;20331;-69
2022/10/04 11:52:55;;;;;;;;;;;19.20;99.90;;;;;;5085734;28;19923;-68
2022/10/04 11:55:57;;;;;;;;;;;19.00;99.90;;;;;;5072680;28;19931;-66
2022/10/04 11:58:31;;;;;;;;;;;19.00;99.90;;;;;;5055799;28;19956;-68
2022/10/04 12:01:13;;;;;;;;;;;18.80;99.90;;;;;;5073775;28;19961;-68
2022/10/04 12:03:38;;;;;;;;;;;18.70;99.90;;;;;;5077493;28;19976;-67
2022/10/04 12:06:17;;;;;;;;;;;18.50;99.90;;;;;;5078010;28;19946;-68
2022/10/04 12:08:52;;;;;;;;;;;18.60;99.90;;;;;;5074321;28;20000;-69
2022/10/04 12:12:35;;;;;;;;;;;18.70;99.90;;;;;;5075826;28;19916;-68
2022/10/04 12:14:12;;;;;;;;;;;18.70;99.90;;;;;;5075813;28;19919;-67
2022/10/04 12:16:56;;;;;;;;;;;18.70;99.90;;;;;;5074290;28;19916;-67
2022/10/04 12:19:22;;;;;;;;;;;18.70;99.90;;;;;;5073193;28;20014;-68
2022/10/04 12:22:09;;;;;;;;;;;18.70;99.90;;;;;;5081326;28;19966;-68
2022/10/04 12:24:49;;;;;;;;;;;18.70;99.90;;;;;;5083265;28;20286;-68
2022/10/04 12:27:22;;;;;;;;;;;18.70;99.90;;;;;;5076698;28;20409;-68
2022/10/04 12:30:07;;;;;;;;;;;18.70;99.90;;;;;;5081690;28;19912;-67
2022/10/04 12:32:35;;;;;;;;;;;18.80;99.90;;;;;;5078940;28;19942;-67
2022/10/04 12:35:13;;;;;;;;;;;19.00;99.90;;;;;;5081367;28;19915;-68
2022/10/04 12:37:38;;;;;;;;;;;19.10;99.90;;;;;;5080832;28;19916;-67
2022/10/04 12:40:23;;;;;;;;;;;19.10;99.90;;;;;;5078756;28;20042;-67
2022/10/04 12:43:08;;;;;;;;;;;19.10;99.90;;;;;;5078976;28;19912;-70
2022/10/04 12:45:43;;;;;;;;;;;19.10;99.90;;;;;;5085668;28;19994;-68
2022/10/04 12:48:15;;;;;;;;;;;19.30;99.90;;;;;;5083728;28;19999;-68
2022/10/04 12:50:41;;;;;;;;;;;19.20;99.90;;;;;;5084709;28;19940;-68
2022/10/04 12:53:21;;;;;;;;;;;19.30;99.90;;;;;;5085624;28;19974;-68
2022/10/04 12:55:53;;;;;;;;;;;19.40;99.90;;;;;;5086122;28;19957;-67
2022/10/04 12:58:42;;;;;;;;;;;19.50;99.90;;;;;;5077510;28;19943;-67
2022/10/04 13:01:13;;;;;;;;;;;19.60;99.90;;;;;;5072998;28;20015;-68
2022/10/04 13:03:57;;;;;;;;;;;19.70;99.90;;;;;;5077861;28;19924;-67
2022/10/04 13:06:30;;;;;;;;;;;19.70;99.90;;;;;;5083944;28;19927;-68
2022/10/04 13:08:56;;;;;;;;;;;19.70;99.90;;;;;;5091428;28;19912;-67
2022/10/04 13:11:35;;;;;;;;;;;19.70;99.90;;;;;;5092038;28;20575;-68
2022/10/04 13:14:00;;;;;;;;;;;19.60;99.90;;;;;;5075892;28;19920;-68
2022/10/04 13:16:44;;;;;;;;;;;19.50;99.90;;;;;;5088918;28;20301;-69
2022/10/04 13:19:37;;;;;;;;;;;19.60;99.90;;;;;;5092150;28;19912;-67
2022/10/04 13:22:12;;;;;;;;;;;19.40;99.90;;;;;;5088293;28;19920;-68
2022/10/04 13:24:53;;;;;;;;;;;19.40;99.90;;;;;;5086843;28;19924;-68
2022/10/04 13:27:28;;;;;;;;;;;19.60;99.90;;;;;;5077288;28;19966;-68
2022/10/04 13:29:54;;;;;;;;;;;19.50;99.90;;;;;;5093118;28;20396;-68
2022/10/04 13:32:22;;;;;;;;;;;19.50;99.90;;;;;;5082314;28;19951;-68
2022/10/04 13:34:48;;;;;;;;;;;19.40;99.90;;;;;;5087457;28;19916;-67
2022/10/04 13:37:17;;;;;;;;;;;19.30;99.90;;;;;;5082883;28;19990;-67
2022/10/04 13:39:48;;;;;;;;;;;19.30;99.90;;;;;;5082521;28;19913;-68
2022/10/04 13:42:32;;;;;;;;;;;19.40;99.90;;;;;;5089613;28;19935;-67
2022/10/04 13:45:17;;;;;;;;;;;19.60;99.90;;;;;;5079802;28;19939;-69
2022/10/04 13:47:58;;;;;;;;;;;19.70;99.90;;;;;;5091209;28;20415;-68
2022/10/04 13:50:26;;;;;;;;;;;19.80;99.90;;;;;;5080317;28;20029;-69
2022/10/04 13:58:51;;;;;;;;;;;19.90;99.90;;;;;;5079002;28;19919;-68
2022/10/04 14:01:16;;;;;;;;;;;19.80;99.90;;;;;;5078269;28;19919;-67
2022/10/04 14:04:01;;;;;;;;;;;19.90;99.90;;;;;;5086286;28;19928;-68
2022/10/04 14:06:48;;;;;;;;;;;20.10;99.90;;;;;;5072304;28;20467;-68
2022/10/04 14:09:13;;;;;;;;;;;20.20;99.90;;;;;;5079716;28;20357;-68
2022/10/04 14:11:40;;;;;;;;;;;20.40;99.90;;;;;;5083086;28;19912;-67
2022/10/04 14:14:13;;;;;;;;;;;20.40;99.90;;;;;;5079672;28;19976;-67
2022/10/04 14:16:41;;;;;;;;;;;20.30;99.90;;;;;;5075400;28;19938;-68
2022/10/04 14:19:07;;;;;;;;;;;20.40;99.90;;;;;;5081024;28;21654;-68
2022/10/04 14:21:33;;;;;;;;;;;20.30;99.90;;;;;;5077033;28;19955;-68
2022/10/04 14:24:17;;;;;;;;;;;20.30;99.90;;;;;;5081255;28;19916;-67
2022/10/04 14:26:43;;;;;;;;;;;20.20;99.90;;;;;;5081840;28;19912;-67
2022/10/04 14:29:28;;;;;;;;;;;20.10;99.90;;;;;;5081453;28;19919;-67
2022/10/04 14:31:54;;;;;;;;;;;20.10;99.90;;;;;;5082831;28;19947;-67
2022/10/04 14:34:32;;;;;;;;;;;19.80;99.90;;;;;;5076798;28;19952;-67
2022/10/04 14:37:13;;;;;;;;;;;19.80;99.90;;;;;;5080346;28;20361;-66
2022/10/04 14:39:39;;;;;;;;;;;19.80;99.90;;;;;;5075562;28;19943;-67
2022/10/04 14:42:15;;;;;;;;;;;19.80;99.90;;;;;;5079626;28;19947;-68
2022/10/04 14:44:47;;;;;;;;;;;19.80;99.90;;;;;;5073543;28;20368;-67
2022/10/04 14:47:21;;;;;;;;;;;19.90;99.90;;;;;;5079830;28;19966;-69
2022/10/04 14:49:56;;;;;;;;;;;19.90;99.90;;;;;;5080558;28;19999;-68
2022/10/04 14:52:29;;;;;;;;;;;20.00;99.90;;;;;;5082908;28;19912;-67
2022/10/04 14:55:05;;;;;;;;;;;20.00;99.90;;;;;;5073821;28;19920;-67
2022/10/04 14:57:45;;;;;;;;;;;19.90;99.90;;;;;;5082170;28;19970;-68
2022/10/04 15:00:20;;;;;;;;;;;19.70;99.90;;;;;;5075518;28;19987;-66
2022/10/04 15:03:05;;;;;;;;;;;19.60;99.90;;;;;;5074333;28;20118;-68
2022/10/04 15:05:36;;;;;;;;;;;19.40;99.90;;;;;;5074877;28;20374;-68
2022/10/04 15:08:28;;;;;;;;;;;19.30;99.90;;;;;;5075136;28;19919;-67
2022/10/04 15:10:56;;;;;;;;;;;19.20;99.90;;;;;;5075402;28;20203;-67
2022/10/04 15:13:31;;;;;;;;;;;19.20;99.90;;;;;;5078492;28;19916;-68